sensor_id;sensor_type;location;lat;lon;timestamp;P1;durP1;ratioP1;P2;durP2;ratioP2
20984;SDS011;10651;47.552;7.606;2022-09-24T05:23:26;14.80;;;11.15;;
20984;SDS011;10651;47.552;7.606;2022-09-24T05:26:13;18.27;;;9.65;;
20984;SDS011;10651;47.552;7.606;2022-09-24T05:29:02;13.32;;;9.27;;
20984;SDS011;10651;47.552;7.606;2022-09-24T05:31:28;16.60;;;9.52;;
20984;SDS011;10651;47.552;7.606;2022-09-24T05:34:04;13.05;;;10.40;;
20984;SDS011;10651;47.552;7.606;2022-09-24T05:36:36;14.48;;;9.63;;
20984;SDS011;10651;47.552;7.606;2022-09-24T05:39:05;10.27;;;7.78;;
20984;SDS011;10651;47.552;7.606;2022-09-24T05:42:35;12.18;;;8.68;;
20984;SDS011;10651;47.552;7.606;2022-09-24T05:45:24;11.23;;;8.63;;
20984;SDS011;10651;47.552;7.606;2022-09-24T05:47:56;12.13;;;7.90;;
20984;SDS011;10651;47.552;7.606;2022-09-24T05:50:29;13.18;;;7.60;;
20984;SDS011;10651;47.552;7.606;2022-09-24T05:53:04;12.45;;;8.23;;
20984;SDS011;10651;47.552;7.606;2022-09-24T05:55:33;12.15;;;8.40;;
20984;SDS011;10651;47.552;7.606;2022-09-24T05:58:17;14.43;;;8.90;;
20984;SDS011;10651;47.552;7.606;2022-09-24T06:00:46;18.63;;;9.82;;
20984;SDS011;10651;47.552;7.606;2022-09-24T06:03:15;15.25;;;9.68;;
20984;SDS011;10651;47.552;7.606;2022-09-24T06:05:45;15.45;;;9.25;;
20984;SDS011;10651;47.552;7.606;2022-09-24T06:08:15;11.65;;;8.80;;
20984;SDS011;10651;47.552;7.606;2022-09-24T06:11:02;13.55;;;8.60;;
20984;SDS011;10651;47.552;7.606;2022-09-24T06:13:33;14.30;;;8.23;;
20984;SDS011;10651;47.552;7.606;2022-09-24T06:16:17;15.40;;;9.17;;
20984;SDS011;10651;47.552;7.606;2022-09-24T06:19:20;12.13;;;8.40;;
20984;SDS011;10651;47.552;7.606;2022-09-24T06:25:42;11.73;;;8.20;;
20984;SDS011;10651;47.552;7.606;2022-09-24T06:34:23;12.15;;;7.80;;
20984;SDS011;10651;47.552;7.606;2022-09-24T06:44:21;9.18;;;7.72;;
20984;SDS011;10651;47.552;7.606;2022-09-24T06:46:56;8.43;;;7.10;;
20984;SDS011;10651;47.552;7.606;2022-09-24T06:49:54;11.10;;;7.20;;
20984;SDS011;10651;47.552;7.606;2022-09-24T06:56:16;11.45;;;7.32;;
20984;SDS011;10651;47.552;7.606;2022-09-24T06:59:05;9.23;;;7.25;;
20984;SDS011;10651;47.552;7.606;2022-09-24T07:01:57;12.02;;;8.98;;
20984;SDS011;10651;47.552;7.606;2022-09-24T07:04:59;12.40;;;9.43;;
20984;SDS011;10651;47.552;7.606;2022-09-24T07:11:24;11.68;;;8.60;;
20984;SDS011;10651;47.552;7.606;2022-09-24T07:14:19;10.90;;;8.63;;
20984;SDS011;10651;47.552;7.606;2022-09-24T07:17:15;12.88;;;8.82;;
20984;SDS011;10651;47.552;7.606;2022-09-24T07:20:20;14.15;;;9.50;;
20984;SDS011;10651;47.552;7.606;2022-09-24T07:22:55;10.60;;;8.75;;
20984;SDS011;10651;47.552;7.606;2022-09-24T07:26:15;13.30;;;9.30;;
20984;SDS011;10651;47.552;7.606;2022-09-24T07:29:07;10.07;;;8.75;;
20984;SDS011;10651;47.552;7.606;2022-09-24T07:32:04;11.93;;;8.80;;
20984;SDS011;10651;47.552;7.606;2022-09-24T07:35:06;13.80;;;8.48;;
20984;SDS011;10651;47.552;7.606;2022-09-24T07:38:00;12.93;;;8.85;;
20984;SDS011;10651;47.552;7.606;2022-09-24T07:40:55;11.30;;;8.27;;
20984;SDS011;10651;47.552;7.606;2022-09-24T07:46:53;9.70;;;7.25;;
20984;SDS011;10651;47.552;7.606;2022-09-24T07:49:33;10.27;;;7.28;;
20984;SDS011;10651;47.552;7.606;2022-09-24T07:55:57;8.07;;;6.07;;
20984;SDS011;10651;47.552;7.606;2022-09-24T07:58:26;8.40;;;5.68;;
20984;SDS011;10651;47.552;7.606;2022-09-24T08:01:38;11.32;;;5.57;;
20984;SDS011;10651;47.552;7.606;2022-09-24T08:04:25;7.75;;;5.88;;
20984;SDS011;10651;47.552;7.606;2022-09-24T08:14:27;8.23;;;6.22;;
20984;SDS011;10651;47.552;7.606;2022-09-24T08:17:41;14.35;;;6.68;;
20984;SDS011;10651;47.552;7.606;2022-09-24T08:20:53;11.93;;;6.97;;
20984;SDS011;10651;47.552;7.606;2022-09-24T08:23:46;10.23;;;7.15;;
20984;SDS011;10651;47.552;7.606;2022-09-24T08:30:26;15.93;;;8.93;;
20984;SDS011;10651;47.552;7.606;2022-09-24T08:36:59;11.00;;;9.02;;
20984;SDS011;10651;47.552;7.606;2022-09-24T08:39:24;10.75;;;8.18;;
20984;SDS011;10651;47.552;7.606;2022-09-24T08:41:55;14.57;;;8.68;;
20984;SDS011;10651;47.552;7.606;2022-09-24T08:51:11;11.45;;;8.48;;
20984;SDS011;10651;47.552;7.606;2022-09-24T08:54:01;11.90;;;8.63;;
20984;SDS011;10651;47.552;7.606;2022-09-24T09:00:49;13.00;;;8.68;;
20984;SDS011;10651;47.552;7.606;2022-09-24T09:15:57;12.13;;;9.40;;
20984;SDS011;10651;47.552;7.606;2022-09-24T09:18:50;10.93;;;8.95;;
20984;SDS011;10651;47.552;7.606;2022-09-24T09:21:58;13.32;;;8.88;;
20984;SDS011;10651;47.552;7.606;2022-09-24T09:48:43;12.27;;;8.68;;
20984;SDS011;10651;47.552;7.606;2022-09-24T10:14:12;9.75;;;6.88;;
20984;SDS011;10651;47.552;7.606;2022-09-24T10:16:44;8.82;;;7.35;;
20984;SDS011;10651;47.552;7.606;2022-09-24T10:19:21;8.98;;;6.53;;
20984;SDS011;10651;47.552;7.606;2022-09-24T10:43:20;5.47;;;4.03;;
20984;SDS011;10651;47.552;7.606;2022-09-24T11:57:49;8.02;;;5.50;;
20984;SDS011;10651;47.552;7.606;2022-09-24T12:04:26;6.55;;;4.88;;
20984;SDS011;10651;47.552;7.606;2022-09-24T12:23:07;3.10;;;2.67;;
20984;SDS011;10651;47.552;7.606;2022-09-24T12:25:45;3.10;;;2.22;;
20984;SDS011;10651;47.552;7.606;2022-09-24T12:47:57;3.53;;;2.72;;
20984;SDS011;10651;47.552;7.606;2022-09-24T12:50:37;3.20;;;2.70;;
20984;SDS011;10651;47.552;7.606;2022-09-24T12:53:59;2.90;;;2.60;;
20984;SDS011;10651;47.552;7.606;2022-09-24T13:09:53;3.55;;;2.70;;
20984;SDS011;10651;47.552;7.606;2022-09-24T13:12:36;4.50;;;2.97;;
20984;SDS011;10651;47.552;7.606;2022-09-24T13:15:03;4.47;;;2.83;;
20984;SDS011;10651;47.552;7.606;2022-09-24T13:17:37;4.07;;;2.95;;
20984;SDS011;10651;47.552;7.606;2022-09-24T13:20:23;4.20;;;3.10;;
20984;SDS011;10651;47.552;7.606;2022-09-24T13:26:00;3.65;;;3.00;;
20984;SDS011;10651;47.552;7.606;2022-09-24T13:28:29;3.78;;;2.90;;
20984;SDS011;10651;47.552;7.606;2022-09-24T13:31:21;11.38;;;3.20;;
20984;SDS011;10651;47.552;7.606;2022-09-24T13:46:15;3.05;;;2.75;;
20984;SDS011;10651;47.552;7.606;2022-09-24T13:48:54;4.25;;;2.95;;
20984;SDS011;10651;47.552;7.606;2022-09-24T13:51:32;4.65;;;2.80;;
20984;SDS011;10651;47.552;7.606;2022-09-24T13:54:19;4.00;;;3.17;;
20984;SDS011;10651;47.552;7.606;2022-09-24T13:57:07;3.35;;;3.00;;
20984;SDS011;10651;47.552;7.606;2022-09-24T13:59:42;3.75;;;2.80;;
20984;SDS011;10651;47.552;7.606;2022-09-24T14:05:15;4.90;;;2.70;;
20984;SDS011;10651;47.552;7.606;2022-09-24T14:07:53;5.47;;;3.25;;
20984;SDS011;10651;47.552;7.606;2022-09-24T14:10:28;3.22;;;2.63;;
20984;SDS011;10651;47.552;7.606;2022-09-24T14:13:02;4.50;;;3.17;;
20984;SDS011;10651;47.552;7.606;2022-09-24T14:30:04;3.63;;;2.63;;
20984;SDS011;10651;47.552;7.606;2022-09-24T14:39:43;7.25;;;4.75;;
20984;SDS011;10651;47.552;7.606;2022-09-24T14:59:35;6.35;;;3.92;;
20984;SDS011;10651;47.552;7.606;2022-09-24T15:05:16;6.57;;;4.90;;
20984;SDS011;10651;47.552;7.606;2022-09-24T15:11:00;8.98;;;5.63;;
20984;SDS011;10651;47.552;7.606;2022-09-24T15:31:31;9.55;;;5.30;;
20984;SDS011;10651;47.552;7.606;2022-09-24T15:37:57;10.93;;;6.40;;
20984;SDS011;10651;47.552;7.606;2022-09-24T15:51:07;9.95;;;5.80;;
20984;SDS011;10651;47.552;7.606;2022-09-24T15:53:48;8.52;;;5.82;;
20984;SDS011;10651;47.552;7.606;2022-09-24T15:56:26;8.88;;;5.85;;
20984;SDS011;10651;47.552;7.606;2022-09-24T15:58:53;8.90;;;5.60;;
20984;SDS011;10651;47.552;7.606;2022-09-24T16:01:19;8.85;;;5.80;;
20984;SDS011;10651;47.552;7.606;2022-09-24T16:03:46;9.88;;;6.13;;
20984;SDS011;10651;47.552;7.606;2022-09-24T16:06:11;11.82;;;5.60;;
20984;SDS011;10651;47.552;7.606;2022-09-24T16:08:38;11.40;;;5.57;;
20984;SDS011;10651;47.552;7.606;2022-09-24T16:11:04;9.15;;;5.93;;
20984;SDS011;10651;47.552;7.606;2022-09-24T16:13:30;14.93;;;6.78;;
20984;SDS011;10651;47.552;7.606;2022-09-24T16:15:57;9.50;;;6.72;;
20984;SDS011;10651;47.552;7.606;2022-09-24T16:18:22;9.00;;;6.47;;
20984;SDS011;10651;47.552;7.606;2022-09-24T16:20:50;12.13;;;6.38;;
20984;SDS011;10651;47.552;7.606;2022-09-24T16:23:16;9.95;;;5.75;;
20984;SDS011;10651;47.552;7.606;2022-09-24T16:25:52;8.00;;;5.97;;
20984;SDS011;10651;47.552;7.606;2022-09-24T16:28:23;12.50;;;5.20;;
20984;SDS011;10651;47.552;7.606;2022-09-24T16:30:50;14.00;;;6.13;;
20984;SDS011;10651;47.552;7.606;2022-09-24T16:33:16;9.80;;;6.03;;
20984;SDS011;10651;47.552;7.606;2022-09-24T16:35:41;13.65;;;6.38;;
20984;SDS011;10651;47.552;7.606;2022-09-24T16:38:07;7.38;;;5.60;;
20984;SDS011;10651;47.552;7.606;2022-09-24T16:40:33;9.73;;;4.97;;
20984;SDS011;10651;47.552;7.606;2022-09-24T16:42:59;9.93;;;5.70;;
20984;SDS011;10651;47.552;7.606;2022-09-24T16:45:25;9.02;;;5.47;;
20984;SDS011;10651;47.552;7.606;2022-09-24T16:47:51;9.20;;;5.05;;
20984;SDS011;10651;47.552;7.606;2022-09-24T16:50:16;7.45;;;5.28;;
20984;SDS011;10651;47.552;7.606;2022-09-24T16:52:44;7.22;;;5.45;;
20984;SDS011;10651;47.552;7.606;2022-09-24T16:55:10;8.18;;;5.40;;
20984;SDS011;10651;47.552;7.606;2022-09-24T16:57:36;9.45;;;6.18;;
20984;SDS011;10651;47.552;7.606;2022-09-24T17:00:04;10.45;;;5.60;;
20984;SDS011;10651;47.552;7.606;2022-09-24T17:02:32;8.23;;;4.85;;
20984;SDS011;10651;47.552;7.606;2022-09-24T17:04:58;7.00;;;5.40;;
20984;SDS011;10651;47.552;7.606;2022-09-24T17:07:24;6.47;;;5.03;;
20984;SDS011;10651;47.552;7.606;2022-09-24T17:09:50;7.25;;;5.35;;
20984;SDS011;10651;47.552;7.606;2022-09-24T17:12:34;8.40;;;5.32;;
20984;SDS011;10651;47.552;7.606;2022-09-24T17:14:59;6.80;;;5.40;;
20984;SDS011;10651;47.552;7.606;2022-09-24T17:17:28;11.68;;;5.32;;
20984;SDS011;10651;47.552;7.606;2022-09-24T17:19:54;7.03;;;4.82;;
20984;SDS011;10651;47.552;7.606;2022-09-24T17:22:20;8.55;;;5.50;;
20984;SDS011;10651;47.552;7.606;2022-09-24T17:24:46;9.70;;;5.03;;
20984;SDS011;10651;47.552;7.606;2022-09-24T17:27:12;8.57;;;5.03;;
20984;SDS011;10651;47.552;7.606;2022-09-24T17:29:58;7.80;;;4.93;;
20984;SDS011;10651;47.552;7.606;2022-09-24T17:32:37;9.75;;;5.07;;
20984;SDS011;10651;47.552;7.606;2022-09-24T17:35:21;7.45;;;5.22;;
20984;SDS011;10651;47.552;7.606;2022-09-24T17:37:50;5.47;;;4.55;;
20984;SDS011;10651;47.552;7.606;2022-09-24T17:40:19;6.40;;;4.47;;
20984;SDS011;10651;47.552;7.606;2022-09-24T17:43:26;5.78;;;4.53;;
20984;SDS011;10651;47.552;7.606;2022-09-24T17:46:00;5.05;;;4.43;;
20984;SDS011;10651;47.552;7.606;2022-09-24T17:48:40;6.32;;;5.03;;
20984;SDS011;10651;47.552;7.606;2022-09-24T17:51:12;7.75;;;4.43;;
20984;SDS011;10651;47.552;7.606;2022-09-24T17:53:49;5.40;;;4.70;;
20984;SDS011;10651;47.552;7.606;2022-09-24T17:56:20;7.88;;;4.78;;
20984;SDS011;10651;47.552;7.606;2022-09-24T17:58:47;9.02;;;4.80;;
20984;SDS011;10651;47.552;7.606;2022-09-24T18:01:20;6.68;;;4.70;;
20984;SDS011;10651;47.552;7.606;2022-09-24T18:03:51;6.93;;;4.43;;
20984;SDS011;10651;47.552;7.606;2022-09-24T18:06:21;6.47;;;4.90;;
20984;SDS011;10651;47.552;7.606;2022-09-24T18:08:48;8.48;;;4.65;;
20984;SDS011;10651;47.552;7.606;2022-09-24T18:11:16;5.70;;;4.45;;
20984;SDS011;10651;47.552;7.606;2022-09-24T18:13:52;6.88;;;4.60;;
20984;SDS011;10651;47.552;7.606;2022-09-24T18:16:20;6.90;;;4.57;;
20984;SDS011;10651;47.552;7.606;2022-09-24T18:18:51;8.95;;;5.28;;
20984;SDS011;10651;47.552;7.606;2022-09-24T18:21:20;7.40;;;5.50;;
20984;SDS011;10651;47.552;7.606;2022-09-24T18:23:51;8.18;;;5.70;;
20984;SDS011;10651;47.552;7.606;2022-09-24T18:26:19;8.75;;;5.53;;
20984;SDS011;10651;47.552;7.606;2022-09-24T18:31:37;5.97;;;4.07;;
20984;SDS011;10651;47.552;7.606;2022-09-24T18:34:04;4.88;;;4.03;;
20984;SDS011;10651;47.552;7.606;2022-09-24T18:39:30;6.25;;;4.80;;
20984;SDS011;10651;47.552;7.606;2022-09-24T18:42:02;8.10;;;4.65;;
20984;SDS011;10651;47.552;7.606;2022-09-24T18:44:28;6.43;;;4.25;;
20984;SDS011;10651;47.552;7.606;2022-09-24T18:47:00;6.10;;;4.45;;
20984;SDS011;10651;47.552;7.606;2022-09-24T18:49:29;8.93;;;5.03;;
20984;SDS011;10651;47.552;7.606;2022-09-24T18:51:55;9.32;;;4.90;;
20984;SDS011;10651;47.552;7.606;2022-09-24T18:54:32;5.80;;;4.20;;
20984;SDS011;10651;47.552;7.606;2022-09-24T18:57:01;7.88;;;4.20;;
20984;SDS011;10651;47.552;7.606;2022-09-24T18:59:36;5.47;;;4.03;;
20984;SDS011;10651;47.552;7.606;2022-09-24T19:02:12;8.38;;;5.38;;
20984;SDS011;10651;47.552;7.606;2022-09-24T19:04:41;9.77;;;4.90;;
20984;SDS011;10651;47.552;7.606;2022-09-24T19:07:15;7.70;;;5.22;;
20984;SDS011;10651;47.552;7.606;2022-09-24T19:09:41;10.32;;;6.70;;
20984;SDS011;10651;47.552;7.606;2022-09-24T19:12:09;8.70;;;6.13;;
20984;SDS011;10651;47.552;7.606;2022-09-24T19:14:39;13.10;;;7.97;;
20984;SDS011;10651;47.552;7.606;2022-09-24T19:17:18;10.30;;;6.20;;
20984;SDS011;10651;47.552;7.606;2022-09-24T19:19:43;8.80;;;5.90;;
20984;SDS011;10651;47.552;7.606;2022-09-24T19:22:13;6.72;;;5.53;;
20984;SDS011;10651;47.552;7.606;2022-09-24T19:24:42;6.68;;;5.85;;
20984;SDS011;10651;47.552;7.606;2022-09-24T19:27:10;8.00;;;6.30;;
20984;SDS011;10651;47.552;7.606;2022-09-24T19:29:35;11.25;;;7.35;;
20984;SDS011;10651;47.552;7.606;2022-09-24T19:32:04;12.35;;;9.07;;
20984;SDS011;10651;47.552;7.606;2022-09-24T19:34:32;8.32;;;6.22;;
20984;SDS011;10651;47.552;7.606;2022-09-24T19:37:00;10.60;;;7.38;;
20984;SDS011;10651;47.552;7.606;2022-09-24T19:39:33;12.35;;;9.02;;
20984;SDS011;10651;47.552;7.606;2022-09-24T19:42:02;14.57;;;8.85;;
20984;SDS011;10651;47.552;7.606;2022-09-24T19:44:39;9.73;;;6.70;;
20984;SDS011;10651;47.552;7.606;2022-09-24T19:47:40;16.95;;;7.47;;
20984;SDS011;10651;47.552;7.606;2022-09-24T19:50:21;16.83;;;10.25;;
20984;SDS011;10651;47.552;7.606;2022-09-24T19:53:07;12.18;;;8.88;;
20984;SDS011;10651;47.552;7.606;2022-09-24T19:55:36;14.27;;;7.00;;
20984;SDS011;10651;47.552;7.606;2022-09-24T19:58:05;8.55;;;7.05;;
20984;SDS011;10651;47.552;7.606;2022-09-24T20:00:39;9.38;;;7.35;;
20984;SDS011;10651;47.552;7.606;2022-09-24T20:03:15;9.73;;;7.63;;
20984;SDS011;10651;47.552;7.606;2022-09-24T20:05:50;12.00;;;7.70;;
20984;SDS011;10651;47.552;7.606;2022-09-24T20:11:19;12.20;;;9.20;;
20984;SDS011;10651;47.552;7.606;2022-09-24T20:14:01;14.15;;;9.75;;
20984;SDS011;10651;47.552;7.606;2022-09-24T20:16:47;13.40;;;8.38;;
20984;SDS011;10651;47.552;7.606;2022-09-24T20:19:18;12.95;;;10.07;;
20984;SDS011;10651;47.552;7.606;2022-09-24T20:21:48;15.30;;;10.98;;
20984;SDS011;10651;47.552;7.606;2022-09-24T20:24:23;16.15;;;10.65;;
20984;SDS011;10651;47.552;7.606;2022-09-24T20:26:54;13.68;;;10.00;;
20984;SDS011;10651;47.552;7.606;2022-09-24T20:29:44;12.63;;;8.88;;
20984;SDS011;10651;47.552;7.606;2022-09-24T20:32:27;14.35;;;9.55;;
20984;SDS011;10651;47.552;7.606;2022-09-24T20:35:11;13.70;;;8.88;;
20984;SDS011;10651;47.552;7.606;2022-09-24T20:37:44;17.33;;;8.95;;
20984;SDS011;10651;47.552;7.606;2022-09-24T20:40:18;11.10;;;7.72;;
20984;SDS011;10651;47.552;7.606;2022-09-24T20:42:59;12.50;;;8.75;;
20984;SDS011;10651;47.552;7.606;2022-09-24T20:45:37;10.75;;;8.15;;
20984;SDS011;10651;47.552;7.606;2022-09-24T20:48:09;13.40;;;8.43;;
20984;SDS011;10651;47.552;7.606;2022-09-24T20:50:35;12.05;;;8.32;;
20984;SDS011;10651;47.552;7.606;2022-09-24T20:53:15;9.38;;;7.72;;
20984;SDS011;10651;47.552;7.606;2022-09-24T20:55:41;9.07;;;7.55;;
20984;SDS011;10651;47.552;7.606;2022-09-24T20:58:09;12.80;;;8.50;;
20984;SDS011;10651;47.552;7.606;2022-09-24T21:00:48;12.25;;;9.27;;
20984;SDS011;10651;47.552;7.606;2022-09-24T21:03:19;15.18;;;10.02;;
20984;SDS011;10651;47.552;7.606;2022-09-24T21:05:46;17.25;;;12.23;;
20984;SDS011;10651;47.552;7.606;2022-09-24T21:08:23;19.55;;;12.80;;
20984;SDS011;10651;47.552;7.606;2022-09-24T21:11:06;21.67;;;14.40;;
20984;SDS011;10651;47.552;7.606;2022-09-24T21:13:50;21.25;;;13.95;;
20984;SDS011;10651;47.552;7.606;2022-09-24T21:16:24;19.65;;;14.23;;
20984;SDS011;10651;47.552;7.606;2022-09-24T21:18:53;25.63;;;14.88;;
20984;SDS011;10651;47.552;7.606;2022-09-24T21:21:22;23.73;;;14.35;;
20984;SDS011;10651;47.552;7.606;2022-09-24T21:23:53;25.52;;;16.23;;
20984;SDS011;10651;47.552;7.606;2022-09-24T21:26:31;21.15;;;14.48;;
20984;SDS011;10651;47.552;7.606;2022-09-24T21:29:14;18.40;;;14.43;;
20984;SDS011;10651;47.552;7.606;2022-09-24T21:31:41;21.33;;;15.65;;
20984;SDS011;10651;47.552;7.606;2022-09-24T21:34:13;20.25;;;14.82;;
20984;SDS011;10651;47.552;7.606;2022-09-24T21:36:47;20.48;;;13.88;;
20984;SDS011;10651;47.552;7.606;2022-09-24T21:39:18;18.83;;;14.27;;
20984;SDS011;10651;47.552;7.606;2022-09-24T21:41:47;17.65;;;12.98;;
20984;SDS011;10651;47.552;7.606;2022-09-24T21:44:27;19.25;;;14.10;;
20984;SDS011;10651;47.552;7.606;2022-09-24T21:47:04;21.52;;;14.10;;
20984;SDS011;10651;47.552;7.606;2022-09-24T21:49:30;16.45;;;13.45;;
20984;SDS011;10651;47.552;7.606;2022-09-24T21:51:57;17.30;;;13.40;;
20984;SDS011;10651;47.552;7.606;2022-09-24T21:54:23;16.65;;;13.55;;
20984;SDS011;10651;47.552;7.606;2022-09-24T21:56:54;21.30;;;15.10;;
20984;SDS011;10651;47.552;7.606;2022-09-24T21:59:20;18.83;;;14.57;;
20984;SDS011;10651;47.552;7.606;2022-09-24T22:02:04;17.88;;;14.77;;
20984;SDS011;10651;47.552;7.606;2022-09-24T22:04:32;19.90;;;15.60;;
20984;SDS011;10651;47.552;7.606;2022-09-24T22:07:01;22.45;;;16.50;;
20984;SDS011;10651;47.552;7.606;2022-09-24T22:09:27;26.67;;;18.35;;
20984;SDS011;10651;47.552;7.606;2022-09-24T22:11:57;33.53;;;19.55;;
20984;SDS011;10651;47.552;7.606;2022-09-24T22:14:24;29.60;;;20.85;;
20984;SDS011;10651;47.552;7.606;2022-09-24T22:16:51;24.00;;;19.17;;
20984;SDS011;10651;47.552;7.606;2022-09-24T22:19:30;26.92;;;20.27;;
20984;SDS011;10651;47.552;7.606;2022-09-24T22:22:06;22.95;;;16.15;;
20984;SDS011;10651;47.552;7.606;2022-09-24T22:24:32;20.20;;;15.93;;
20984;SDS011;10651;47.552;7.606;2022-09-24T22:27:03;23.58;;;16.05;;
20984;SDS011;10651;47.552;7.606;2022-09-24T22:29:29;20.15;;;15.73;;
20984;SDS011;10651;47.552;7.606;2022-09-24T22:32:01;21.13;;;15.63;;
20984;SDS011;10651;47.552;7.606;2022-09-24T22:34:31;22.63;;;15.48;;
20984;SDS011;10651;47.552;7.606;2022-09-24T22:37:15;20.25;;;14.68;;
